Eland, WI

6:12 AM CST on February 11, 2016 (GMT -0600)
Weston Weather Station | | Change Station
CLOSE
Current Station
Personal Weather Station
Location: Weston, WI
Elevation: 1214 ft
Nearby Weather Stations

Elev 1214 ft 44.91 °N, 89.55 °W | Updated 1 minute ago

Partly Cloudy
Partly Cloudy
-6.2 °F
Feels Like -6 °F
N
0.0
Wind Variable Wind from WNW

Today
High -- | Low -- °F
--% Chance of Precip.
Yesterday
High -- | Low -- °F
Precip. -- in
Pressure 30.31 in
Visibility -9999.0 miles
Clouds Clear
Windchill -6 °F
Dew Point -8 °F
Humidity 91%
Rainfall 0.00 in
Snow Depth Not available.
7:04 AM 5:19 PM
Waxing Crescent, 11% visible
METAR KAUW 111154Z AUTO 32007KT CLR M18/M21 A3021 RMK AO2 SLP264 T11831211 11161 21189 51013 $
Pressure 30.31 in
Visibility -9999.0 miles
Clouds Clear
Windchill -6 °F
Dew Point -8 °F
Humidity 91%
Rainfall 0.00 in
Snow Depth Not available.
7:04 AM 5:19 PM
Waxing Crescent, 11% visible
METAR KAUW 111154Z AUTO 32007KT CLR M18/M21 A3021 RMK AO2 SLP264 T11831211 11161 21189 51013 $

10-Day Weather Forecast

Almanac

Astronomy

Feb. 11, 2016 Rise Set
Actual Time
Civil Twilight
Nautical Twilight
Astronomical Twilight
Moon
Length of Visible Light
Length of Day
Tomorrow will be .
, % of the Moon is Illuminated

Today's Extremes

State Highs State Lows

Community

WunderPhotos

Upload Photos

1,892,035 photos uploaded!

WunderBlog® & News

Nearby

Air Quality

  Air Quality AQ Index Pollutant
Not available.

Snow Depth

Station Depth Elevation

Earthquake Activity

City Distance Mag. Time & Date
Minimum magnitude displayed is 2.5.

Coastal Water Temperatures

Place Temperature

Stations

Nearby Weather Stations

Station Location Temp. Windchill Dew Point Humidity Wind Precip. Elev Updated Type
                   

Watches & Warnings

There are currently no watches in effect.